Time;durP1;ratioP1;P1;durP2;ratioP2;P2;SDS_P1;SDS_P2;PMS_P1;PMS_P2;Temp;Humidity;BMP_temperature;BMP_pressure;BME280_temperature;BME280_humidity;BME280_pressure;Samples;Min_cycle;Max_cycle;Signal;HPM_P1;HPM_P2
2021/10/26 00:02:19;;;;;;;25.60;16.15;;;;;;;;;;4993049;28;20046;-69
2021/10/26 00:04:46;;;;;;;28.38;16.38;;;;;;;;;;4985634;28;20387;-68
2021/10/26 00:07:12;;;;;;;36.10;18.60;;;;;;;;;;4986732;28;20038;-68
2021/10/26 00:09:39;;;;;;;29.05;16.90;;;;;;;;;;4989321;28;20034;-68
2021/10/26 00:12:05;;;;;;;28.48;17.60;;;;;;;;;;5001966;28;20045;-68
2021/10/26 00:14:32;;;;;;;28.48;15.88;;;;;;;;;;4996357;28;20042;-68
2021/10/26 00:16:58;;;;;;;30.75;18.20;;;;;;;;;;4991159;28;20055;-69
2021/10/26 00:19:25;;;;;;;32.78;17.40;;;;;;;;;;4994244;28;20933;-69
2021/10/26 00:21:51;;;;;;;31.02;18.65;;;;;;;;;;4989024;28;20053;-69
2021/10/26 00:24:18;;;;;;;31.48;17.77;;;;;;;;;;5000790;28;20046;-69
2021/10/26 00:26:44;;;;;;;27.67;17.55;;;;;;;;;;4989763;28;20076;-70
2021/10/26 00:29:10;;;;;;;38.45;18.23;;;;;;;;;;4995751;28;20061;-69
2021/10/26 00:31:37;;;;;;;33.95;17.45;;;;;;;;;;4999464;28;20561;-69
2021/10/26 00:34:04;;;;;;;27.02;17.58;;;;;;;;;;4989448;28;20065;-69
2021/10/26 00:36:31;;;;;;;30.88;18.08;;;;;;;;;;4993852;28;20052;-69
2021/10/26 00:38:57;;;;;;;32.03;18.05;;;;;;;;;;4994789;28;20054;-69
2021/10/26 00:41:25;;;;;;;26.85;16.50;;;;;;;;;;5000434;28;20090;-68
2021/10/26 00:43:51;;;;;;;24.25;16.88;;;;;;;;;;4993903;28;20045;-69
2021/10/26 00:46:28;;;;;;;29.88;17.88;;;;;;;;;;5001412;28;20046;-69
2021/10/26 00:48:55;;;;;;;33.05;18.05;;;;;;;;;;4990914;28;20053;-69
2021/10/26 00:51:22;;;;;;;28.58;17.55;;;;;;;;;;4974981;28;20054;-69
2021/10/26 00:53:48;;;;;;;30.70;18.13;;;;;;;;;;4999662;28;20061;-69
2021/10/26 00:56:15;;;;;;;33.13;17.98;;;;;;;;;;4990296;28;20058;-69
2021/10/26 00:58:41;;;;;;;31.95;18.02;;;;;;;;;;4998420;28;20066;-69
2021/10/26 01:01:07;;;;;;;31.42;18.98;;;;;;;;;;4988783;28;21470;-69
2021/10/26 01:03:34;;;;;;;31.40;19.00;;;;;;;;;;4993464;28;20084;-69
2021/10/26 01:06:01;;;;;;;30.85;18.25;;;;;;;;;;4998654;28;20045;-69
2021/10/26 01:08:28;;;;;;;32.25;19.75;;;;;;;;;;4992348;28;20479;-69
2021/10/26 01:10:54;;;;;;;35.33;19.30;;;;;;;;;;4995639;28;20061;-69
2021/10/26 01:13:22;;;;;;;35.13;19.67;;;;;;;;;;4991518;28;20058;-70
2021/10/26 01:15:48;;;;;;;32.70;18.70;;;;;;;;;;4996093;28;20109;-69
2021/10/26 01:18:15;;;;;;;34.38;19.48;;;;;;;;;;4987154;28;20783;-69
2021/10/26 01:20:43;;;;;;;35.63;20.42;;;;;;;;;;4998628;28;20042;-69
2021/10/26 01:23:09;;;;;;;35.10;20.95;;;;;;;;;;4997813;28;20041;-69
2021/10/26 01:25:35;;;;;;;33.10;19.02;;;;;;;;;;4975404;28;20073;-69
2021/10/26 01:28:02;;;;;;;38.03;20.33;;;;;;;;;;4999262;28;20046;-69
2021/10/26 01:30:32;;;;;;;32.83;20.00;;;;;;;;;;4984778;28;20038;-69
2021/10/26 01:32:58;;;;;;;33.42;20.55;;;;;;;;;;4994137;28;20649;-69
2021/10/26 01:35:25;;;;;;;36.03;20.95;;;;;;;;;;4992531;28;20058;-69
2021/10/26 01:37:51;;;;;;;37.63;20.95;;;;;;;;;;4996999;28;20128;-69
2021/10/26 01:40:18;;;;;;;41.47;20.67;;;;;;;;;;4997485;28;20050;-69
2021/10/26 01:42:44;;;;;;;33.10;20.90;;;;;;;;;;4988933;28;20042;-69
2021/10/26 01:45:11;;;;;;;35.65;21.05;;;;;;;;;;4992568;28;20046;-69
2021/10/26 01:47:37;;;;;;;37.40;22.27;;;;;;;;;;4993513;28;20291;-69
2021/10/26 01:50:04;;;;;;;35.58;19.60;;;;;;;;;;5000545;28;20056;-69
2021/10/26 01:52:31;;;;;;;39.17;21.05;;;;;;;;;;4990025;28;20050;-69
2021/10/26 01:55:00;;;;;;;42.28;23.45;;;;;;;;;;4999459;28;20054;-69
2021/10/26 01:57:28;;;;;;;40.05;22.88;;;;;;;;;;4994142;28;20058;-69
2021/10/26 01:59:57;;;;;;;42.95;23.17;;;;;;;;;;4987643;28;20048;-69
2021/10/26 02:02:25;;;;;;;38.35;21.67;;;;;;;;;;4996948;28;20092;-70
2021/10/26 02:04:52;;;;;;;43.27;22.53;;;;;;;;;;4991179;28;20050;-69
2021/10/26 02:07:19;;;;;;;34.50;19.80;;;;;;;;;;4997125;28;20050;-69
2021/10/26 02:09:45;;;;;;;40.53;21.73;;;;;;;;;;4990293;28;20443;-69
2021/10/26 02:12:11;;;;;;;41.53;23.08;;;;;;;;;;4992842;28;20062;-69
2021/10/26 02:14:38;;;;;;;42.08;23.15;;;;;;;;;;4993653;28;20086;-69
2021/10/26 02:17:04;;;;;;;39.08;22.15;;;;;;;;;;4993200;28;20062;-69
2021/10/26 02:19:31;;;;;;;40.30;23.63;;;;;;;;;;4978997;28;20050;-69
2021/10/26 02:21:57;;;;;;;41.45;23.70;;;;;;;;;;4989344;28;20061;-69
2021/10/26 02:24:24;;;;;;;45.10;22.73;;;;;;;;;;4995532;28;20065;-69
2021/10/26 02:26:50;;;;;;;49.55;23.48;;;;;;;;;;4986584;28;20076;-69
2021/10/26 02:29:17;;;;;;;39.17;23.27;;;;;;;;;;4997237;28;20050;-69
2021/10/26 02:31:43;;;;;;;41.67;22.33;;;;;;;;;;4999314;28;20145;-69
2021/10/26 02:34:10;;;;;;;42.40;23.80;;;;;;;;;;4988868;28;20171;-69
2021/10/26 02:36:36;;;;;;;49.63;23.58;;;;;;;;;;4998008;28;20068;-69
2021/10/26 02:39:03;;;;;;;39.45;22.58;;;;;;;;;;4988266;28;20172;-69
2021/10/26 02:41:31;;;;;;;39.80;23.00;;;;;;;;;;4974933;28;20046;-69
2021/10/26 02:43:57;;;;;;;37.78;22.38;;;;;;;;;;4991045;28;20578;-69
2021/10/26 02:46:23;;;;;;;41.53;23.92;;;;;;;;;;4978780;28;20050;-68
2021/10/26 02:48:50;;;;;;;42.25;22.83;;;;;;;;;;4996967;28;20054;-69
2021/10/26 02:51:16;;;;;;;41.00;23.27;;;;;;;;;;4991154;28;20046;-69
2021/10/26 02:53:43;;;;;;;42.45;25.23;;;;;;;;;;4990142;28;20057;-69
2021/10/26 02:56:10;;;;;;;40.97;20.90;;;;;;;;;;4987719;28;20046;-69
2021/10/26 02:58:36;;;;;;;47.80;23.40;;;;;;;;;;4997963;28;20065;-69
2021/10/26 03:01:03;;;;;;;42.58;23.75;;;;;;;;;;4990953;28;20499;-69
2021/10/26 03:03:29;;;;;;;48.33;24.75;;;;;;;;;;4993577;28;20053;-69
2021/10/26 03:05:56;;;;;;;37.88;23.85;;;;;;;;;;4976864;28;20042;-69
2021/10/26 03:08:23;;;;;;;46.23;25.67;;;;;;;;;;4987240;28;20058;-69
2021/10/26 03:10:50;;;;;;;39.95;24.00;;;;;;;;;;4995053;28;20495;-69
2021/10/26 03:13:16;;;;;;;39.53;24.60;;;;;;;;;;4991054;28;20079;-69
2021/10/26 03:15:43;;;;;;;41.33;23.30;;;;;;;;;;4992604;28;20061;-69
2021/10/26 03:18:09;;;;;;;42.58;22.80;;;;;;;;;;4975142;28;20053;-69
2021/10/26 03:20:36;;;;;;;45.90;24.95;;;;;;;;;;4996904;28;20050;-69
2021/10/26 03:23:03;;;;;;;42.47;24.90;;;;;;;;;;4993357;28;20050;-69
2021/10/26 03:25:29;;;;;;;42.20;24.80;;;;;;;;;;4976525;28;20084;-69
2021/10/26 03:27:55;;;;;;;41.22;24.13;;;;;;;;;;4999900;28;20049;-69
2021/10/26 03:30:22;;;;;;;44.50;24.17;;;;;;;;;;4993735;28;20056;-69
2021/10/26 03:32:48;;;;;;;43.22;23.90;;;;;;;;;;4999254;28;20050;-69
2021/10/26 03:35:14;;;;;;;41.35;22.48;;;;;;;;;;4992660;28;20096;-70
2021/10/26 03:37:41;;;;;;;43.50;24.00;;;;;;;;;;4992028;28;20430;-69
2021/10/26 03:40:08;;;;;;;38.10;24.02;;;;;;;;;;5000695;28;20267;-69
2021/10/26 03:42:35;;;;;;;44.58;25.20;;;;;;;;;;4994899;28;20045;-68
2021/10/26 03:45:02;;;;;;;47.70;26.02;;;;;;;;;;4995217;28;20053;-69
2021/10/26 03:47:28;;;;;;;48.05;26.60;;;;;;;;;;4995788;28;20048;-69
2021/10/26 03:49:54;;;;;;;45.90;25.38;;;;;;;;;;4995105;28;20647;-68
2021/10/26 03:52:20;;;;;;;48.17;24.10;;;;;;;;;;4999045;28;20061;-68
2021/10/26 03:54:47;;;;;;;43.63;24.35;;;;;;;;;;4994690;28;20681;-68
2021/10/26 03:57:13;;;;;;;45.33;25.70;;;;;;;;;;4997419;28;21146;-70
2021/10/26 03:59:40;;;;;;;45.65;24.83;;;;;;;;;;4994539;28;20050;-69
2021/10/26 04:02:12;;;;;;;46.65;24.45;;;;;;;;;;4996513;28;20057;-69
2021/10/26 04:04:39;;;;;;;45.88;24.90;;;;;;;;;;4988156;28;20046;-68
2021/10/26 04:07:08;;;;;;;48.65;25.83;;;;;;;;;;4995240;28;20049;-68
2021/10/26 04:12:24;;;;;;;53.45;26.08;;;;;;;;;;4998604;28;20566;-69
2021/10/26 04:14:52;;;;;;;54.85;28.08;;;;;;;;;;4996864;28;20372;-69
2021/10/26 04:17:19;;;;;;;43.63;24.88;;;;;;;;;;4986814;28;20046;-68
2021/10/26 04:19:47;;;;;;;45.03;25.70;;;;;;;;;;4999522;28;20042;-68
2021/10/26 04:22:14;;;;;;;46.00;26.13;;;;;;;;;;4993189;28;20478;-68
2021/10/26 04:24:41;;;;;;;46.33;24.52;;;;;;;;;;5001267;28;20046;-69
2021/10/26 04:27:07;;;;;;;49.20;24.45;;;;;;;;;;4990053;28;20446;-68
2021/10/26 04:29:33;;;;;;;52.92;25.67;;;;;;;;;;4996061;28;20058;-69
2021/10/26 04:32:00;;;;;;;48.10;24.90;;;;;;;;;;4995139;28;20061;-69
2021/10/26 04:34:26;;;;;;;46.60;24.00;;;;;;;;;;4990396;28;20046;-68
2021/10/26 04:36:53;;;;;;;41.22;23.30;;;;;;;;;;4998779;28;20495;-68
2021/10/26 04:39:20;;;;;;;49.60;25.10;;;;;;;;;;4974850;28;20056;-68
2021/10/26 04:41:46;;;;;;;43.88;24.52;;;;;;;;;;4999049;28;20694;-68
2021/10/26 04:44:12;;;;;;;47.20;25.05;;;;;;;;;;4989692;28;20052;-69
2021/10/26 04:46:39;;;;;;;45.28;24.45;;;;;;;;;;4992297;28;20057;-68
2021/10/26 04:49:05;;;;;;;51.10;25.10;;;;;;;;;;4998713;28;20065;-68
2021/10/26 04:51:31;;;;;;;51.65;25.58;;;;;;;;;;4993368;28;20056;-69
2021/10/26 04:53:58;;;;;;;49.65;24.15;;;;;;;;;;4996577;28;20054;-68
2021/10/26 04:56:24;;;;;;;49.42;25.13;;;;;;;;;;4991202;28;20072;-69
2021/10/26 04:58:50;;;;;;;54.80;26.15;;;;;;;;;;4977791;28;20050;-68
2021/10/26 05:01:17;;;;;;;51.63;26.77;;;;;;;;;;4990942;28;20050;-68
2021/10/26 05:03:43;;;;;;;48.95;25.52;;;;;;;;;;4994474;28;21314;-68
2021/10/26 05:06:10;;;;;;;48.80;25.02;;;;;;;;;;4998029;28;20046;-68
2021/10/26 05:08:36;;;;;;;44.35;22.67;;;;;;;;;;4989835;28;20049;-70
2021/10/26 05:11:02;;;;;;;49.08;25.02;;;;;;;;;;4996392;28;20472;-68
2021/10/26 05:13:30;;;;;;;49.05;25.42;;;;;;;;;;4988680;28;20058;-69
2021/10/26 05:15:58;;;;;;;50.25;26.13;;;;;;;;;;4997259;28;20060;-69
2021/10/26 05:18:27;;;;;;;51.33;25.35;;;;;;;;;;4993611;28;20110;-68
2021/10/26 05:20:54;;;;;;;45.38;23.50;;;;;;;;;;4998504;28;20053;-69
2021/10/26 05:23:20;;;;;;;49.55;24.48;;;;;;;;;;4994367;28;20046;-68
2021/10/26 05:25:48;;;;;;;47.00;23.95;;;;;;;;;;4983356;28;20818;-68
2021/10/26 05:28:14;;;;;;;50.08;23.65;;;;;;;;;;4994763;28;20414;-68
2021/10/26 05:30:41;;;;;;;50.13;26.38;;;;;;;;;;4992327;28;20056;-69
2021/10/26 05:33:08;;;;;;;53.13;26.83;;;;;;;;;;4998233;28;20052;-68
2021/10/26 05:35:34;;;;;;;48.42;25.85;;;;;;;;;;4989663;28;20053;-68
2021/10/26 05:38:01;;;;;;;49.28;25.50;;;;;;;;;;4991710;28;20050;-68
2021/10/26 05:40:27;;;;;;;51.08;25.67;;;;;;;;;;4992665;28;20046;-69
2021/10/26 05:42:54;;;;;;;57.38;28.20;;;;;;;;;;4987121;28;20107;-69
2021/10/26 05:45:20;;;;;;;53.42;27.10;;;;;;;;;;4995008;28;20503;-68
2021/10/26 05:47:48;;;;;;;53.67;26.25;;;;;;;;;;4992822;28;20053;-68
2021/10/26 05:50:14;;;;;;;54.22;27.20;;;;;;;;;;4998559;28;20065;-68
2021/10/26 05:52:41;;;;;;;48.15;25.90;;;;;;;;;;4985728;28;20057;-68
2021/10/26 05:55:07;;;;;;;48.78;25.33;;;;;;;;;;4994566;28;20050;-68
2021/10/26 05:57:33;;;;;;;49.08;24.58;;;;;;;;;;4992393;28;20056;-68
2021/10/26 06:00:00;;;;;;;47.30;24.38;;;;;;;;;;4989554;28;20060;-68
2021/10/26 06:02:26;;;;;;;54.28;26.60;;;;;;;;;;4994806;28;20046;-69
2021/10/26 06:04:52;;;;;;;52.05;27.02;;;;;;;;;;4986987;28;20050;-68
2021/10/26 06:07:19;;;;;;;54.65;27.45;;;;;;;;;;4992265;28;20046;-68
2021/10/26 06:09:45;;;;;;;51.53;25.58;;;;;;;;;;4988402;28;20374;-68
2021/10/26 06:12:17;;;;;;;51.05;25.65;;;;;;;;;;4995219;28;20049;-68
2021/10/26 06:14:45;;;;;;;52.50;25.73;;;;;;;;;;4997131;28;20060;-68
2021/10/26 06:17:11;;;;;;;55.38;27.25;;;;;;;;;;4989542;28;20057;-68
2021/10/26 06:19:37;;;;;;;58.88;27.83;;;;;;;;;;4995833;28;20168;-69
2021/10/26 06:22:04;;;;;;;55.72;27.27;;;;;;;;;;4985198;28;20060;-68
2021/10/26 06:24:30;;;;;;;57.60;29.08;;;;;;;;;;4998194;28;20065;-69
2021/10/26 06:26:56;;;;;;;50.40;26.60;;;;;;;;;;4988981;28;20505;-68
2021/10/26 06:29:22;;;;;;;55.42;25.92;;;;;;;;;;4998708;28;20687;-69
2021/10/26 06:31:49;;;;;;;56.28;27.30;;;;;;;;;;4998391;28;20057;-68
2021/10/26 06:34:15;;;;;;;55.45;27.38;;;;;;;;;;4987778;28;20065;-69
2021/10/26 06:36:41;;;;;;;57.03;26.67;;;;;;;;;;4998169;28;20479;-68
2021/10/26 06:39:08;;;;;;;63.90;29.55;;;;;;;;;;4988958;28;20499;-69
2021/10/26 06:41:34;;;;;;;58.03;27.70;;;;;;;;;;4996219;28;20042;-69
2021/10/26 06:44:01;;;;;;;62.55;27.58;;;;;;;;;;4993397;28;20449;-68
2021/10/26 06:46:27;;;;;;;47.45;24.48;;;;;;;;;;4988504;28;20056;-68
2021/10/26 06:48:54;;;;;;;60.65;27.60;;;;;;;;;;4997237;28;20050;-68
2021/10/26 06:51:20;;;;;;;52.28;23.50;;;;;;;;;;4992057;28;20050;-68
2021/10/26 06:53:46;;;;;;;54.55;25.92;;;;;;;;;;4977640;28;20045;-69
2021/10/26 06:56:14;;;;;;;55.17;25.27;;;;;;;;;;4993503;28;20522;-68
2021/10/26 06:58:40;;;;;;;56.80;25.75;;;;;;;;;;4978358;28;20076;-69
2021/10/26 07:01:08;;;;;;;62.45;26.65;;;;;;;;;;4990751;28;20422;-68
2021/10/26 07:03:35;;;;;;;52.37;26.13;;;;;;;;;;4999982;28;20053;-69
2021/10/26 07:06:03;;;;;;;50.67;23.65;;;;;;;;;;5000812;28;20046;-69
2021/10/26 07:08:29;;;;;;;52.78;23.98;;;;;;;;;;4990907;28;20047;-69
2021/10/26 07:10:59;;;;;;;53.08;23.20;;;;;;;;;;5002404;28;20070;-69
2021/10/26 07:13:25;;;;;;;50.65;23.35;;;;;;;;;;4992796;28;20064;-69
2021/10/26 07:15:52;;;;;;;49.28;22.77;;;;;;;;;;4995159;28;20383;-68
2021/10/26 07:18:18;;;;;;;56.58;25.90;;;;;;;;;;4996028;28;20058;-69
2021/10/26 07:20:45;;;;;;;49.00;24.13;;;;;;;;;;4999602;28;20075;-69
2021/10/26 07:23:11;;;;;;;57.70;25.40;;;;;;;;;;5000979;28;20053;-69
2021/10/26 07:25:38;;;;;;;55.80;25.65;;;;;;;;;;4994841;28;20065;-69
2021/10/26 07:28:04;;;;;;;56.72;24.20;;;;;;;;;;4974587;28;20061;-68
2021/10/26 07:30:35;;;;;;;54.20;24.30;;;;;;;;;;4991791;28;20058;-69
2021/10/26 07:33:04;;;;;;;58.10;23.27;;;;;;;;;;5002628;28;20049;-68
2021/10/26 07:35:39;;;;;;;55.70;23.60;;;;;;;;;;4991277;28;20049;-69
2021/10/26 07:38:06;;;;;;;49.55;22.10;;;;;;;;;;4997446;28;20139;-69
2021/10/26 07:40:32;;;;;;;53.80;23.67;;;;;;;;;;4998106;28;20054;-69
2021/10/26 07:42:59;;;;;;;57.83;24.40;;;;;;;;;;4991765;28;20088;-69
2021/10/26 07:45:25;;;;;;;55.08;24.70;;;;;;;;;;4999063;28;20050;-69
2021/10/26 07:47:51;;;;;;;55.95;24.42;;;;;;;;;;4995149;28;20054;-68
2021/10/26 07:50:18;;;;;;;51.78;24.08;;;;;;;;;;4997976;28;20053;-69
2021/10/26 07:52:45;;;;;;;58.08;25.02;;;;;;;;;;4994021;28;20049;-69
2021/10/26 07:55:11;;;;;;;55.53;24.00;;;;;;;;;;4997163;28;20046;-69
2021/10/26 07:57:38;;;;;;;52.17;23.40;;;;;;;;;;4996656;28;20388;-69
2021/10/26 08:00:05;;;;;;;53.38;24.40;;;;;;;;;;4994467;28;20057;-68
2021/10/26 08:02:34;;;;;;;49.00;23.55;;;;;;;;;;4996491;28;20054;-68
2021/10/26 08:05:00;;;;;;;55.25;25.38;;;;;;;;;;4992985;28;20053;-69
2021/10/26 08:07:27;;;;;;;56.80;24.92;;;;;;;;;;4996475;28;20562;-68
2021/10/26 08:09:55;;;;;;;53.40;24.60;;;;;;;;;;4988970;28;20041;-68
2021/10/26 08:12:22;;;;;;;62.55;23.85;;;;;;;;;;4998913;28;20049;-68
2021/10/26 08:14:49;;;;;;;50.20;22.98;;;;;;;;;;5000476;28;20056;-68
2021/10/26 08:17:16;;;;;;;46.40;21.73;;;;;;;;;;4993145;28;20068;-69
2021/10/26 08:19:43;;;;;;;48.55;21.75;;;;;;;;;;4998273;28;20065;-69
2021/10/26 08:22:16;;;;;;;49.45;20.85;;;;;;;;;;4990338;28;20057;-69
2021/10/26 08:24:44;;;;;;;44.10;19.83;;;;;;;;;;4978984;28;20034;-69
2021/10/26 08:27:14;;;;;;;39.33;19.73;;;;;;;;;;4993942;28;20791;-68
2021/10/26 08:29:47;;;;;;;44.08;20.23;;;;;;;;;;5002577;28;20053;-68
2021/10/26 08:37:13;;;;;;;41.60;18.90;;;;;;;;;;4995364;28;20042;-69
2021/10/26 08:39:41;;;;;;;51.55;19.85;;;;;;;;;;4991041;28;20489;-69
2021/10/26 08:42:13;;;;;;;35.20;17.63;;;;;;;;;;4998858;28;20046;-69
2021/10/26 08:44:41;;;;;;;45.58;19.00;;;;;;;;;;4995169;28;20041;-69
2021/10/26 08:47:08;;;;;;;39.73;17.17;;;;;;;;;;4980767;28;20042;-68
2021/10/26 08:49:34;;;;;;;43.35;18.70;;;;;;;;;;4994513;28;20734;-68
2021/10/26 08:52:04;;;;;;;38.80;17.95;;;;;;;;;;4988865;28;20049;-69
2021/10/26 08:54:31;;;;;;;40.88;20.10;;;;;;;;;;4997834;28;20438;-69
2021/10/26 08:56:58;;;;;;;40.72;18.38;;;;;;;;;;4991926;28;20053;-69
2021/10/26 08:59:25;;;;;;;39.10;18.58;;;;;;;;;;4999165;28;20072;-69
2021/10/26 09:02:00;;;;;;;42.33;19.08;;;;;;;;;;4988877;28;20096;-68
2021/10/26 09:04:34;;;;;;;40.45;19.02;;;;;;;;;;4992273;28;20061;-69
2021/10/26 09:07:06;;;;;;;43.33;19.77;;;;;;;;;;4991452;28;20096;-68
2021/10/26 09:09:34;;;;;;;43.78;19.27;;;;;;;;;;4997350;28;20120;-69
2021/10/26 09:17:30;;;;;;;49.35;21.92;;;;;;;;;;4992371;28;20052;-68
2021/10/26 09:19:57;;;;;;;44.33;20.92;;;;;;;;;;4987206;28;20056;-69
2021/10/26 09:22:24;;;;;;;54.88;22.15;;;;;;;;;;4999333;28;20485;-69
2021/10/26 09:24:58;;;;;;;48.47;22.42;;;;;;;;;;4992020;28;20505;-69
2021/10/26 09:27:25;;;;;;;47.95;20.92;;;;;;;;;;4996377;28;21286;-68
2021/10/26 09:29:55;;;;;;;39.53;18.52;;;;;;;;;;4994703;28;20046;-68
2021/10/26 09:32:24;;;;;;;40.60;20.23;;;;;;;;;;4986807;28;20057;-68
2021/10/26 09:34:53;;;;;;;47.42;20.15;;;;;;;;;;4997262;28;20053;-68
2021/10/26 09:37:20;;;;;;;40.97;20.50;;;;;;;;;;4992849;28;20976;-68
2021/10/26 09:39:56;;;;;;;41.42;20.98;;;;;;;;;;4995804;28;20049;-68
2021/10/26 09:42:27;;;;;;;36.92;18.70;;;;;;;;;;4971498;28;20050;-69
2021/10/26 09:45:03;;;;;;;36.80;17.08;;;;;;;;;;4996758;28;20054;-68
2021/10/26 09:47:32;;;;;;;34.83;17.52;;;;;;;;;;4986528;28;20058;-68
2021/10/26 09:50:00;;;;;;;31.75;15.02;;;;;;;;;;4996676;28;20062;-68
2021/10/26 09:52:30;;;;;;;26.42;14.25;;;;;;;;;;4993987;28;20085;-68
2021/10/26 09:55:18;;;;;;;30.50;14.38;;;;;;;;;;4997615;28;20046;-68
2021/10/26 09:57:47;;;;;;;37.57;15.10;;;;;;;;;;4996908;28;20056;-68
2021/10/26 10:00:17;;;;;;;30.65;13.43;;;;;;;;;;4987358;28;20136;-68
2021/10/26 10:02:55;;;;;;;28.33;13.80;;;;;;;;;;4976514;28;20046;-68
2021/10/26 10:05:24;;;;;;;26.67;13.17;;;;;;;;;;4991081;28;20049;-68
2021/10/26 10:07:50;;;;;;;27.80;11.98;;;;;;;;;;4998039;28;20283;-68
2021/10/26 10:10:16;;;;;;;28.05;12.77;;;;;;;;;;4989436;28;20049;-68
2021/10/26 10:12:45;;;;;;;23.67;12.32;;;;;;;;;;4989969;28;20606;-69
2021/10/26 10:15:12;;;;;;;24.75;11.65;;;;;;;;;;4996382;28;20054;-69
2021/10/26 10:17:40;;;;;;;24.38;12.73;;;;;;;;;;4975118;28;20066;-68
2021/10/26 10:20:10;;;;;;;27.83;11.73;;;;;;;;;;4997892;28;20053;-68
2021/10/26 10:22:38;;;;;;;23.48;13.55;;;;;;;;;;4992810;28;20060;-69
2021/10/26 10:25:06;;;;;;;22.42;11.60;;;;;;;;;;4993861;28;20055;-69
2021/10/26 10:27:34;;;;;;;28.92;13.00;;;;;;;;;;4985760;28;20064;-68
2021/10/26 10:30:00;;;;;;;20.73;10.75;;;;;;;;;;4995722;28;20054;-69
2021/10/26 10:32:29;;;;;;;24.10;11.60;;;;;;;;;;4990615;28;20457;-69
2021/10/26 10:34:59;;;;;;;27.83;12.43;;;;;;;;;;4973639;28;20050;-69
2021/10/26 10:37:27;;;;;;;26.42;12.75;;;;;;;;;;4993871;28;20060;-68
2021/10/26 10:39:55;;;;;;;29.98;12.93;;;;;;;;;;4982297;28;20418;-68
2021/10/26 10:42:23;;;;;;;24.20;12.13;;;;;;;;;;4992046;28;20427;-68
2021/10/26 10:44:51;;;;;;;24.67;12.50;;;;;;;;;;4989043;28;20060;-68
2021/10/26 10:47:17;;;;;;;;;;;;;;;;;;4995101;28;20046;-68
2021/10/26 10:49:45;;;;;;;24.75;12.80;;;;;;;;;;4991584;28;20333;-68
2021/10/26 10:52:21;;;;;;;26.58;11.82;;;;;;;;;;4995570;28;20050;-68
2021/10/26 10:54:55;;;;;;;23.73;12.07;;;;;;;;;;4989333;28;20077;-68
2021/10/26 10:57:38;;;;;;;23.05;12.02;;;;;;;;;;4980408;28;20058;-68
2021/10/26 11:00:04;;;;;;;22.33;11.57;;;;;;;;;;4998342;28;20640;-68
2021/10/26 11:02:36;;;;;;;23.70;11.35;;;;;;;;;;4988011;28;20064;-68
2021/10/26 11:05:04;;;;;;;24.30;13.07;;;;;;;;;;4995651;28;20050;-68
2021/10/26 11:07:43;;;;;;;29.67;12.73;;;;;;;;;;4987189;28;20057;-69
2021/10/26 11:10:09;;;;;;;;;;;;;;;;;;4992986;28;20453;-68
2021/10/26 11:12:37;;;;;;;26.27;12.60;;;;;;;;;;4992216;28;19929;-68
2021/10/26 11:15:08;;;;;;;26.45;12.73;;;;;;;;;;4998308;28;20053;-68
2021/10/26 11:17:34;;;;;;;32.85;13.63;;;;;;;;;;4997192;28;20041;-68
2021/10/26 11:20:11;;;;;;;31.73;14.13;;;;;;;;;;4989585;28;20057;-68
2021/10/26 11:22:53;;;;;;;29.02;13.43;;;;;;;;;;4991830;28;20049;-69
2021/10/26 11:25:21;;;;;;;26.35;13.55;;;;;;;;;;4988587;28;20045;-68
2021/10/26 11:27:48;;;;;;;28.25;14.23;;;;;;;;;;4995807;28;21327;-68
2021/10/26 11:30:38;;;;;;;28.55;14.15;;;;;;;;;;4992824;28;20058;-68
2021/10/26 11:33:14;;;;;;;30.75;14.77;;;;;;;;;;4987895;28;20057;-68
2021/10/26 11:35:46;;;;;;;24.35;12.68;;;;;;;;;;4987542;28;20054;-69
2021/10/26 11:38:13;;;;;;;25.10;14.02;;;;;;;;;;4993929;28;20046;-69
2021/10/26 11:41:12;;;;;;;29.50;13.23;;;;;;;;;;4996802;28;20757;-69
2021/10/26 11:43:49;;;;;;;29.83;14.30;;;;;;;;;;4953954;28;20061;-68
2021/10/26 11:46:17;;;;;;;40.20;18.52;;;;;;;;;;5001622;28;20509;-72
2021/10/26 11:48:48;;;;;;;27.52;12.57;;;;;;;;;;4991109;28;20054;-69
2021/10/26 11:51:22;;;;;;;29.67;13.45;;;;;;;;;;4996205;28;20063;-68
2021/10/26 11:53:51;;;;;;;33.83;12.82;;;;;;;;;;4994802;28;20054;-69
2021/10/26 11:56:18;;;;;;;23.02;12.32;;;;;;;;;;5001780;28;20050;-68
2021/10/26 11:58:58;;;;;;;24.42;11.77;;;;;;;;;;4992129;28;20041;-68
2021/10/26 12:01:38;;;;;;;25.77;12.70;;;;;;;;;;4999958;28;20058;-68
2021/10/26 12:04:05;;;;;;;26.25;11.75;;;;;;;;;;4995401;28;20041;-68
2021/10/26 12:06:33;;;;;;;23.20;11.02;;;;;;;;;;4987733;28;20480;-68
2021/10/26 12:09:00;;;;;;;23.67;11.82;;;;;;;;;;4998346;28;20054;-68
2021/10/26 12:11:30;;;;;;;27.98;10.52;;;;;;;;;;4995348;28;20049;-68
2021/10/26 12:14:15;;;;;;;25.58;10.80;;;;;;;;;;5000964;28;20057;-69
2021/10/26 12:17:00;;;;;;;25.58;10.93;;;;;;;;;;4986912;28;20050;-68
2021/10/26 12:19:27;;;;;;;22.48;9.90;;;;;;;;;;4996435;28;20054;-68
2021/10/26 12:21:57;;;;;;;18.70;9.77;;;;;;;;;;4991671;28;20050;-68
2021/10/26 12:24:24;;;;;;;21.00;9.15;;;;;;;;;;5000013;28;20488;-68
2021/10/26 12:27:00;;;;;;;20.67;8.97;;;;;;;;;;5000126;28;20046;-68
2021/10/26 12:29:30;;;;;;;17.83;8.15;;;;;;;;;;4992913;28;20279;-70
2021/10/26 12:31:57;;;;;;;24.15;8.98;;;;;;;;;;4991511;28;20062;-68
2021/10/26 12:34:23;;;;;;;22.15;8.68;;;;;;;;;;4994503;28;20061;-68
2021/10/26 12:36:50;;;;;;;16.88;8.07;;;;;;;;;;4997668;28;20064;-69
2021/10/26 12:39:23;;;;;;;22.13;8.48;;;;;;;;;;4975690;28;20058;-68
2021/10/26 12:41:49;;;;;;;21.33;8.50;;;;;;;;;;4998904;28;20049;-68
2021/10/26 12:44:18;;;;;;;22.17;7.93;;;;;;;;;;4993656;28;20080;-68
2021/10/26 12:46:45;;;;;;;19.00;7.68;;;;;;;;;;4989873;28;20107;-68
2021/10/26 12:49:15;;;;;;;18.38;6.95;;;;;;;;;;4999555;28;20049;-68
2021/10/26 12:51:42;;;;;;;24.05;7.32;;;;;;;;;;4991212;28;20155;-68
2021/10/26 12:54:18;;;;;;;20.55;7.68;;;;;;;;;;4998027;28;20056;-68
2021/10/26 12:56:45;;;;;;;15.70;6.25;;;;;;;;;;4992832;28;20080;-68
2021/10/26 12:59:16;;;;;;;13.48;6.15;;;;;;;;;;4991356;28;20046;-68
2021/10/26 13:01:46;;;;;;;13.90;6.05;;;;;;;;;;4989693;28;20056;-68
2021/10/26 13:04:24;;;;;;;14.93;5.60;;;;;;;;;;4998099;28;20116;-68
2021/10/26 13:06:56;;;;;;;18.15;5.88;;;;;;;;;;4998802;28;20404;-68
2021/10/26 13:09:52;;;;;;;16.73;6.28;;;;;;;;;;4993321;28;20112;-68
2021/10/26 13:12:26;;;;;;;17.52;5.40;;;;;;;;;;4995093;28;20415;-68
2021/10/26 13:15:03;;;;;;;15.38;5.97;;;;;;;;;;4987180;28;20068;-68
2021/10/26 13:17:32;;;;;;;12.93;5.78;;;;;;;;;;4996653;28;20039;-68
2021/10/26 13:20:12;;;;;;;20.10;5.55;;;;;;;;;;4993164;28;20069;-68
2021/10/26 13:22:38;;;;;;;17.88;5.95;;;;;;;;;;4998059;28;20411;-68
2021/10/26 13:25:05;;;;;;;17.58;5.88;;;;;;;;;;4990936;28;20056;-68
2021/10/26 13:27:31;;;;;;;15.38;6.00;;;;;;;;;;4999329;28;20157;-68
2021/10/26 13:29:57;;;;;;;16.83;6.13;;;;;;;;;;4999162;28;20041;-68
2021/10/26 13:32:24;;;;;;;17.05;6.10;;;;;;;;;;4989141;28;20054;-68
2021/10/26 13:34:51;;;;;;;17.45;6.18;;;;;;;;;;4998689;28;20072;-68
2021/10/26 13:37:19;;;;;;;17.85;6.43;;;;;;;;;;4984549;28;20049;-68
2021/10/26 13:39:48;;;;;;;18.10;5.90;;;;;;;;;;4995265;28;20054;-68
2021/10/26 13:42:14;;;;;;;14.55;4.82;;;;;;;;;;4993287;28;20288;-68
2021/10/26 13:44:42;;;;;;;13.40;6.13;;;;;;;;;;4998470;28;20046;-68
2021/10/26 13:47:08;;;;;;;19.50;6.07;;;;;;;;;;4996728;28;20054;-70
2021/10/26 13:49:35;;;;;;;14.95;5.57;;;;;;;;;;4987414;28;20052;-68
2021/10/26 13:52:02;;;;;;;18.13;6.30;;;;;;;;;;4989311;28;20057;-68
2021/10/26 13:54:29;;;;;;;10.35;5.40;;;;;;;;;;4986714;28;20632;-68
2021/10/26 13:56:56;;;;;;;15.88;6.03;;;;;;;;;;4998070;28;20072;-68
2021/10/26 13:59:23;;;;;;;13.63;4.85;;;;;;;;;;4991254;28;20052;-68
2021/10/26 14:02:06;;;;;;;13.95;5.40;;;;;;;;;;4991874;28;20053;-68
2021/10/26 14:04:33;;;;;;;10.77;5.18;;;;;;;;;;4987266;28;20050;-68
2021/10/26 14:06:59;;;;;;;14.45;5.40;;;;;;;;;;4994033;28;20056;-68
2021/10/26 14:09:25;;;;;;;13.90;5.22;;;;;;;;;;4999072;28;20054;-68
2021/10/26 14:11:52;;;;;;;11.93;5.50;;;;;;;;;;4992241;28;20049;-68
2021/10/26 14:14:19;;;;;;;14.45;5.22;;;;;;;;;;4997708;28;20167;-68
2021/10/26 14:16:45;;;;;;;9.48;5.25;;;;;;;;;;4986778;28;20647;-68
2021/10/26 14:19:12;;;;;;;14.48;5.40;;;;;;;;;;4993301;28;20104;-68
2021/10/26 14:21:38;;;;;;;9.30;5.05;;;;;;;;;;4989040;28;20878;-68
2021/10/26 14:24:05;;;;;;;12.73;5.40;;;;;;;;;;4997691;28;20041;-68
2021/10/26 14:26:41;;;;;;;12.15;5.05;;;;;;;;;;4996347;28;20045;-68
2021/10/26 14:29:07;;;;;;;10.20;5.22;;;;;;;;;;4986734;28;20057;-68
2021/10/26 14:31:34;;;;;;;15.38;5.70;;;;;;;;;;4992334;28;20037;-68
2021/10/26 14:34:00;;;;;;;14.25;5.57;;;;;;;;;;4987763;28;20068;-68
2021/10/26 14:36:38;;;;;;;11.38;5.53;;;;;;;;;;4996803;28;20785;-68
2021/10/26 14:39:17;;;;;;;16.00;5.93;;;;;;;;;;4992371;28;20189;-68
2021/10/26 14:56:10;;;;;;;11.50;5.55;;;;;;;;;;4965779;28;20061;-68